Buckeye, New Mexico
Current Conditions -  °F | °C
As of 12:15 AM on Friday 31 Oct 2014 (Local Time) from KHOB Reporting Station
Clear Clear  
Wind Chill: 57°   Ceiling: Unl
Heat Index: 57°   Visibility: 10mi
Dew Point: 32°   Wind: 14mph
Humidity: 38%   Direction: 60°ENE
Pressure: 30.33"   Gusts: NA
Location:  32.9094°N, 103.479°W
Report Text: KHOB 310615Z AUTO 06012KT 10SM CLR 14/00 A3033 RMK AO2
Loading
Personal Weather Stations






























Interactive Weather Map
Tropical Storm Tracking
New forecast layout! Learn more

10-Day Weather Forecast

Advertisements
Track Severe Weather on mobile